^^
Station Historical Data
Daily Summary for January 3, 2018 Units:  Metric    English   Both
« Previous Day
Next Day »
Daily Weekly Monthly Yearly Custom
  High: Low: Average:
Temperature: -17.8 °C 20.1 °C 27.6 °C
Dew Point: -17.8 °C -12.6 °C -3.7 °C
Humidity: Humidity% 4% 14%
Wind Speed: 0km/h 0km/h 7.1km/h
Wind Gust: 0km/h - -
Wind- - SSW
Pressure: 0 hPa 1005.6 hPa -
Precipitation: 0 mm    
Historical Graphs
 
 
Tabular Data for January 3, 2018
Time Temperature Dew Point Pressure Wind Wind Speed Wind Gust Humidity Rainfall Rate (Hourly) solar Conditions
-17.8 °C -17.8 °C 0 hPa Calm     Humidity% 0 mm SolarRadiationWatts/m^2 W/m2 Conditions
00:02 24.6 °C -3.8 °C 1009.7 hPa Calm     15% 0 mm 137.0 W/m2
00:10 24.9 °C -3.5 °C 1010 hPa Calm     15% 0 mm 181.0 W/m2
00:20 25.4 °C -3.1 °C 1010 hPa Calm     15% 0 mm 227.0 W/m2
00:35 26.4 °C -3.3 °C 1010 hPa Calm   4.8 km/h 14% 0 mm 283.0 W/m2
00:50 26.9 °C -2.9 °C 1010 hPa Calm   1.6 km/h 14% 0 mm 338.0 W/m2
01:04 27.6 °C -3.3 °C 1010 hPa SE 1.4 km/h 8 km/h 13% 0 mm 373.0 W/m2
01:16 28.1 °C -4 °C 1010.4 hPa Calm   9.7 km/h 12% 0 mm 408.0 W/m2
01:26 28.9 °C -3.4 °C 1010.4 hPa Calm   4.8 km/h 12% 0 mm 462.0 W/m2
01:46 29.2 °C -3.1 °C 1010.4 hPa Calm     12% 0 mm 515.0 W/m2
02:02 29.7 °C -3.9 °C 1010.4 hPa Calm     11% 0 mm 570.0 W/m2
02:16 30 °C -3.7 °C 1010.4 hPa Calm   6.4 km/h 11% 0 mm 619.0 W/m2
02:25 30.4 °C -4.6 °C 1010.4 hPa SE 4.7 km/h 6.4 km/h 10% 0 mm 650.0 W/m2
02:35 30.4 °C -4.6 °C 1010.4 hPa Calm     10% 0 mm 682.0 W/m2
02:48 30.7 °C -4.4 °C 1010.4 hPa Calm   6.4 km/h 10% 0 mm 715.0 W/m2
03:00 31.2 °C -4 °C 1010.4 hPa Calm   9.7 km/h 10% 0 mm 759.0 W/m2
07:07 36.6 °C -9.1 °C 1007.7 hPa WNW 13 km/h 16.1 km/h 5% 0 mm 972.0 W/m2
07:47 36.9 °C -8.9 °C 1007.3 hPa Calm     5% 0 mm 912.0 W/m2
07:57 37.2 °C -8.7 °C 1007 hPa NNW 11.1 km/h 20.9 km/h 5% 0 mm 884.0 W/m2
08:19 37.5 °C -11.3 °C 1006.7 hPa Calm   1.6 km/h 4% 0 mm 846.0 W/m2
08:34 38 °C -11 °C 1006.3 hPa Calm     4% 0 mm 814.0 W/m2
08:43 37.7 °C -11.2 °C 1006.3 hPa Calm   14.5 km/h 4% 0 mm 773.0 W/m2
09:03 37.3 °C -11.5 °C 1006.3 hPa NNW 11.1 km/h 17.7 km/h 4% 0 mm 733.0 W/m2
09:14 37.5 °C -11.3 °C 1006.3 hPa Calm   12.9 km/h 4% 0 mm 703.0 W/m2
09:25 37.5 °C -11.3 °C 1006 hPa Calm   1.6 km/h 4% 0 mm 673.0 W/m2
09:38 37.4 °C -11.4 °C 1006 hPa WNW 16.3 km/h 22.5 km/h 4% 0 mm 624.0 W/m2
09:46 37.9 °C -11.1 °C 1005.6 hPa West 14.3 km/h 20.9 km/h 4% 0 mm 587.0 W/m2
09:55 37.8 °C -11.1 °C 1005.6 hPa West 11.1 km/h 14.5 km/h 4% 0 mm 552.0 W/m2
12:39 36.1 °C -12.3 °C 1006 hPa SSW 11.1 km/h 14.5 km/h 4% 0 mm 9.0 W/m2
12:50 35.7 °C -12.6 °C 1006 hPa SSW 11.1 km/h 12.9 km/h 4% 0 mm 5.0 W/m2
13:01 35.3 °C -10 °C 1006 hPa SSW 11.1 km/h 14.5 km/h 5% 0 mm 0.0 W/m2
13:28 34.2 °C -10.8 °C 1006.3 hPa SSW 4.7 km/h 6.4 km/h 5% 0 mm 0.0 W/m2
13:44 33.1 °C -11.6 °C 1006.3 hPa Calm     5% 0 mm 0.0 W/m2
14:00 31.9 °C -10.1 °C 1006.7 hPa Calm     6% 0 mm 0.0 W/m2
14:14 31.3 °C -10.6 °C 1006.7 hPa Calm     6% 0 mm 0.0 W/m2
14:29 30.6 °C -11.1 °C 1006.7 hPa Calm     6% 0 mm 0.0 W/m2
15:00 30.8 °C -10.9 °C 1007.3 hPa SSW 9.7 km/h 11.3 km/h 6% 0 mm 0.0 W/m2
15:37 30.7 °C -2 °C 1008 hPa SSE 13 km/h 19.3 km/h 12% 0 mm 0.0 W/m2
15:51 30.3 °C -1.2 °C 1008.4 hPa SSE 14.3 km/h 17.7 km/h 13% 0 mm 0.0 W/m2
16:00 30.2 °C -1.3 °C 1008.4 hPa SSE 16.3 km/h 29 km/h 13% 0 mm 0.0 W/m2
16:06 30.1 °C -1.3 °C 1008.4 hPa SSE 22.7 km/h 22.7 km/h 13% 0 mm 0.0 W/m2
16:11 29.8 °C -0.6 °C 1008.7 hPa SSE 13 km/h 17.7 km/h 14% 0 mm 0.0 W/m2
16:16 29.6 °C -0.7 °C 1008.7 hPa South 11.1 km/h 16.1 km/h 14% 0 mm 0.0 W/m2
16:21 29.4 °C -0.9 °C 1008.7 hPa South 7.9 km/h 14.5 km/h 14% 0 mm 0.0 W/m2
16:26 29.2 °C -1 °C 1008.7 hPa South 13 km/h 14.5 km/h 14% 0 mm 0.0 W/m2
16:36 29.3 °C -1 °C 1008.7 hPa WSW 17.7 km/h 24.1 km/h 14% 0 mm 0.0 W/m2
16:41 29.4 °C -0.9 °C 1008.7 hPa WSW 14.3 km/h 24.1 km/h 14% 0 mm 0.0 W/m2
16:47 29.4 °C -0.9 °C 1008.7 hPa WSW 16.3 km/h 19.3 km/h 14% 0 mm 0.0 W/m2
16:57 29.3 °C -1 °C 1008.7 hPa WSW 9.7 km/h 24.1 km/h 14% 0 mm 0.0 W/m2
17:06 28.9 °C -0.3 °C 1008.7 hPa WSW 11.1 km/h 16.1 km/h 15% 0 mm 0.0 W/m2
17:11 28.7 °C -0.5 °C 1008.7 hPa WSW 11.1 km/h 17.7 km/h 15% 0 mm 0.0 W/m2
17:16 28.6 °C -0.6 °C 1008.7 hPa WSW 16.3 km/h 17.7 km/h 15% 0 mm 0.0 W/m2
17:21 28.6 °C -0.6 °C 1008.7 hPa SW 14.3 km/h 19.3 km/h 15% 0 mm 0.0 W/m2
17:36 28.4 °C -0.7 °C 1008.4 hPa SW 17.7 km/h 24.1 km/h 15% 0 mm 0.0 W/m2
17:41 28.4 °C -0.7 °C 1008.7 hPa SW 16.3 km/h 20.9 km/h 15% 0 mm 0.0 W/m2
17:46 28.4 °C -0.7 °C 1008.7 hPa SSW 24.1 km/h 24.1 km/h 15% 0 mm 0.0 W/m2
17:51 28.4 °C -0.7 °C 1008.4 hPa SSW 22.7 km/h 25.7 km/h 15% 0 mm 0.0 W/m2
17:56 28.2 °C -0.9 °C 1008.4 hPa SSW 17.7 km/h 22.5 km/h 15% 0 mm 0.0 W/m2
18:06 28.2 °C -0.9 °C 1008.4 hPa SSW 16.3 km/h 22.5 km/h 15% 0 mm 0.0 W/m2
18:11 27.9 °C -1.1 °C 1008.4 hPa SSW 16.3 km/h 17.7 km/h 15% 0 mm 0.0 W/m2
18:16 27.7 °C -1.3 °C 1008.4 hPa SSW 19.5 km/h 22.5 km/h 15% 0 mm 0.0 W/m2
18:21 27.6 °C -1.4 °C 1008.4 hPa SSW 13 km/h 17.7 km/h 15% 0 mm 0.0 W/m2
18:31 27.4 °C -0.6 °C 1008.4 hPa SSW 13 km/h 20.9 km/h 16% 0 mm 0.0 W/m2
18:36 27.4 °C -0.6 °C 1008.4 hPa SSW 14.3 km/h 19.3 km/h 16% 0 mm 0.0 W/m2
18:41 27.3 °C -1.6 °C 1008.4 hPa SSW 14.3 km/h 17.7 km/h 15% 0 mm 0.0 W/m2
18:51 26.9 °C -1 °C 1008.4 hPa SSW 16.3 km/h 19.3 km/h 16% 0 mm 0.0 W/m2
19:02 26.9 °C -1 °C 1008.4 hPa SSW 11.1 km/h 14.5 km/h 16% 0 mm 0.0 W/m2
19:22 25.7 °C -2 °C 1008 hPa SSW 1.4 km/h 4.8 km/h 16% 0 mm 0.0 W/m2
19:27 25.4 °C -1.4 °C 1008 hPa SSW 6.4 km/h 8 km/h 17% 0 mm 0.0 W/m2
19:32 25.3 °C -1.5 °C 1008 hPa SSW 3.2 km/h 6.4 km/h 17% 0 mm 0.0 W/m2
19:37 25.3 °C -1.5 °C 1008 hPa SSW 4.7 km/h 8 km/h 17% 0 mm 0.0 W/m2
19:42 25.4 °C -1.4 °C 1008 hPa SSW 7.9 km/h 9.7 km/h 17% 0 mm 0.0 W/m2
19:47 25.4 °C -1.4 °C 1008 hPa SSW 11.1 km/h 11.3 km/h 17% 0 mm 0.0 W/m2
19:52 25.4 °C -1.4 °C 1007.7 hPa SSW 11.1 km/h 12.9 km/h 17% 0 mm 0.0 W/m2
19:57 25.4 °C -1.4 °C 1007.7 hPa SSW 11.1 km/h 12.9 km/h 17% 0 mm 0.0 W/m2
20:07 25.2 °C -1.6 °C 1007.7 hPa SSW 13 km/h 13 km/h 17% 0 mm 0.0 W/m2
20:12 25 °C -1.8 °C 1007.7 hPa SSW 9.7 km/h 11.3 km/h 17% 0 mm 0.0 W/m2
20:18 24.8 °C -1.1 °C 1007.7 hPa SSW 9.7 km/h 12.9 km/h 18% 0 mm 0.0 W/m2
20:28 24.9 °C -1.1 °C 1007.3 hPa SSW 14.3 km/h 14.5 km/h 18% 0 mm 0.0 W/m2
20:43 24.9 °C -1.1 °C 1007.7 hPa Calm     18% 0 mm 0.0 W/m2
20:53 24.8 °C -1.1 °C 1007.7 hPa SSW 9.7 km/h 11.3 km/h 18% 0 mm 0.0 W/m2
20:58 24.6 °C -1.3 °C 1007.7 hPa SSW 7.9 km/h 11.3 km/h 18% 0 mm 0.0 W/m2
21:03 24.4 °C -1.5 °C 1007.7 hPa SSW 6.4 km/h 9.7 km/h 18% 0 mm 0.0 W/m2
21:08 24.1 °C -1.7 °C 1007.7 hPa SSW 9.7 km/h 9.7 km/h 18% 0 mm 0.0 W/m2
21:14 24 °C -1.1 °C 1007.7 hPa SSW 9.7 km/h 9.7 km/h 19% 0 mm 0.0 W/m2
21:19 23.9 °C -1.1 °C 1007.7 hPa SSW 6.4 km/h 8 km/h 19% 0 mm 0.0 W/m2
21:24 23.6 °C -1.4 °C 1007.7 hPa SSW 3.2 km/h 3.2 km/h 19% 0 mm 0.0 W/m2
21:29 23.3 °C -1.6 °C 1007.7 hPa SSW 1.4 km/h 4.8 km/h 19% 0 mm 0.0 W/m2
21:34 23 °C -1.9 °C 1007.7 hPa Calm     19% 0 mm 0.0 W/m2
21:39 22.7 °C -1.4 °C 1007.7 hPa Calm     20% 0 mm 0.0 W/m2
21:44 22.5 °C -1.6 °C 1007.7 hPa Calm     20% 0 mm 0.0 W/m2
21:49 22.1 °C -1.9 °C 1007.7 hPa Calm     20% 0 mm 0.0 W/m2
21:54 21.9 °C -2.1 °C 1007.7 hPa Calm     20% 0 mm 0.0 W/m2
21:59 21.8 °C -2.2 °C 1008 hPa Calm     20% 0 mm 0.0 W/m2
22:04 21.6 °C -1.7 °C 1008 hPa Calm     21% 0 mm 0.0 W/m2
22:09 21.3 °C -1.3 °C 1008 hPa Calm     22% 0 mm 0.0 W/m2
22:19 21.1 °C -1.5 °C 1008 hPa Calm     22% 0 mm 0.0 W/m2
22:25 20.9 °C -1 °C 1008 hPa Calm     23% 0 mm 0.0 W/m2
22:46 20.2 °C -1.6 °C 1008.4 hPa Calm     23% 0 mm 0.0 W/m2
22:51 20.1 °C -1.7 °C 1008.4 hPa Calm     23% 0 mm 0.0 W/m2
22:57 20.3 °C -2.1 °C 1008.4 hPa Calm     22% 0 mm 0.0 W/m2
23:01 20.3 °C -1.5 °C 1008.4 hPa Calm     23% 0 mm 5.0 W/m2
23:20 20.2 °C -1 °C 1008.4 hPa Calm     24% 0 mm 14.0 W/m2
23:30 20.5 °C -1.3 °C 1008.7 hPa Calm     23% 0 mm 30.0 W/m2
23:37 21.3 °C -1.3 °C 1008.7 hPa Calm     22% 0 mm 56.0 W/m2
23:42 21.7 °C -1 °C 1008.7 hPa Calm     22% 0 mm 72.0 W/m2
Canyon Roadhouse, Fishriver Canyon, Namibia
Compliments of Weather Underground - 2.25 mb